createdAt,value
2022-08-16T00:01:11.152Z,95773.00
2022-08-16T00:03:38.476Z,95784.47
2022-08-16T00:06:07.229Z,95786.94
2022-08-16T00:08:36.589Z,95787.41
2022-08-16T00:11:03.568Z,95783.38
2022-08-16T00:13:29.937Z,95784.03
2022-08-16T00:15:56.801Z,95790.03
2022-08-16T00:18:29.856Z,95790.53
2022-08-16T00:20:57.995Z,95782.09
2022-08-16T00:23:34.522Z,95784.34
2022-08-16T00:26:35.233Z,95785.41
2022-08-16T00:28:54.856Z,95778.75
2022-08-16T00:31:24.013Z,95781.59
2022-08-16T00:33:50.712Z,95785.41
2022-08-16T00:36:17.081Z,95788.06
2022-08-16T00:38:43.504Z,95781.34
2022-08-16T00:41:10.021Z,95777.56
2022-08-16T00:43:43.520Z,95783.09
2022-08-16T00:46:33.556Z,95780.41
2022-08-16T00:48:57.010Z,95777.94
2022-08-16T00:51:23.372Z,95774.31
2022-08-16T00:53:49.919Z,95781.06
2022-08-16T00:56:56.013Z,95774.31
2022-08-16T00:59:03.725Z,95770.66
2022-08-16T01:01:30.688Z,95774.22
2022-08-16T01:03:57.165Z,95766.84
2022-08-16T01:06:40.016Z,95769.59
2022-08-16T01:09:10.327Z,95768.69
2022-08-16T01:11:36.980Z,95770.66
2022-08-16T01:14:20.548Z,95766.84
2022-08-16T01:16:56.084Z,95765.56
2022-08-16T01:19:22.458Z,95765.00
2022-08-16T01:21:48.862Z,95768.16
2022-08-16T01:24:53.493Z,95762.94
2022-08-16T01:27:03.922Z,95756.44
2022-08-16T01:29:44.079Z,95754.41
2022-08-16T01:32:33.583Z,95760.53
2022-08-16T01:35:00.845Z,95764.84
2022-08-16T01:37:27.209Z,95765.75
2022-08-16T01:40:02.369Z,95764.19
2022-08-16T01:42:33.704Z,95767.31
2022-08-16T01:45:00.360Z,95770.19
2022-08-16T01:47:27.185Z,95766.78
2022-08-16T01:50:42.872Z,95773.69
2022-08-16T01:52:42.182Z,95768.31
2022-08-16T01:55:12.966Z,95763.94
2022-08-16T01:57:40.949Z,95760.94
2022-08-16T02:00:20.268Z,95760.22
2022-08-16T02:02:55.373Z,95753.25
2022-08-16T02:05:23.555Z,95754.72
2022-08-16T02:07:52.061Z,95751.66
2022-08-16T02:10:19.917Z,95755.25
2022-08-16T02:12:55.888Z,95759.81
2022-08-16T02:15:25.299Z,95760.41
2022-08-16T02:17:52.523Z,95756.09
2022-08-16T02:20:19.124Z,95750.00
2022-08-16T02:22:52.871Z,95755.69
2022-08-16T02:25:21.746Z,95752.13
2022-08-16T02:27:51.165Z,95741.34
2022-08-16T02:30:36.941Z,95753.34
2022-08-16T02:33:04.600Z,95743.91
2022-08-16T02:35:32.023Z,95741.09
2022-08-16T02:38:08.539Z,95741.91
2022-08-16T02:40:35.442Z,95744.09
2022-08-16T02:43:02.699Z,95739.25
2022-08-16T02:45:29.244Z,95733.41
2022-08-16T02:48:00.264Z,95743.59
2022-08-16T02:50:53.831Z,95743.44
2022-08-16T02:53:13.626Z,95746.69
2022-08-16T02:55:44.466Z,95747.41
2022-08-16T02:58:10.827Z,95741.50
2022-08-16T03:00:40.017Z,95746.63
2022-08-16T03:03:11.857Z,95751.25
2022-08-16T03:05:41.583Z,95750.81
2022-08-16T03:08:52.058Z,95742.81
2022-08-16T03:10:55.168Z,95745.63
2022-08-16T03:13:25.765Z,95741.06
2022-08-16T03:15:52.876Z,95746.13
2022-08-16T03:18:34.262Z,95733.88
2022-08-16T03:21:01.218Z,95736.22
2022-08-16T03:23:27.593Z,95741.72
2022-08-16T03:26:02.413Z,95749.28
2022-08-16T03:28:28.811Z,95748.47
2022-08-16T03:30:56.707Z,95750.72
2022-08-16T03:33:23.065Z,95749.19
2022-08-16T03:35:49.782Z,95749.44
2022-08-16T03:38:32.627Z,95749.00
2022-08-16T03:41:01.051Z,95761.25
2022-08-16T03:43:51.777Z,95760.44
2022-08-16T03:46:47.702Z,95761.88
2022-08-16T03:49:02.106Z,95757.31
2022-08-16T03:51:28.477Z,95756.41
2022-08-16T03:54:01.000Z,95754.63
2022-08-16T03:56:27.812Z,95751.47
2022-08-16T03:58:56.806Z,95737.84
2022-08-16T04:01:24.463Z,95744.28
2022-08-16T04:03:55.833Z,95746.44
2022-08-16T04:06:22.195Z,95743.75
2022-08-16T04:08:48.558Z,95737.94
2022-08-16T04:11:16.492Z,95742.63
2022-08-16T04:14:01.276Z,95743.94
2022-08-16T04:16:29.824Z,95740.59
2022-08-16T04:19:02.096Z,95740.75
2022-08-16T04:21:29.751Z,95742.44
2022-08-16T04:23:56.218Z,95742.06
2022-08-16T04:26:22.582Z,95742.25
2022-08-16T04:28:53.622Z,95745.72
2022-08-16T04:31:36.473Z,95741.09
2022-08-16T04:34:02.828Z,95746.63
2022-08-16T04:36:30.267Z,95751.19
2022-08-16T04:38:58.268Z,95746.78
2022-08-16T04:41:32.376Z,95738.31
2022-08-16T04:43:59.360Z,95735.81
2022-08-16T04:47:00.177Z,95732.84
2022-08-16T04:49:12.153Z,95735.03
2022-08-16T04:51:40.651Z,95738.75
2022-08-16T04:54:07.005Z,95744.19
2022-08-16T04:56:34.267Z,95750.00
2022-08-16T04:59:09.331Z,95754.22
2022-08-16T05:01:57.730Z,95749.53
2022-08-16T05:04:22.019Z,95751.91
2022-08-16T05:06:48.381Z,95746.25
2022-08-16T05:09:16.218Z,95744.84
2022-08-16T05:11:42.826Z,95744.19
2022-08-16T05:14:09.453Z,95750.16
2022-08-16T05:16:35.814Z,95740.06
2022-08-16T05:19:02.220Z,95750.22
2022-08-16T05:21:35.908Z,95751.56
2022-08-16T05:24:06.177Z,95745.59
2022-08-16T05:26:33.511Z,95742.53
2022-08-16T05:28:59.862Z,95748.50
2022-08-16T05:31:29.695Z,95750.31
2022-08-16T05:33:56.405Z,95745.75
2022-08-16T05:36:22.756Z,95745.44
2022-08-16T05:39:00.106Z,95745.47
2022-08-16T05:41:28.668Z,95756.41
2022-08-16T05:43:59.205Z,95752.63
2022-08-16T05:46:29.656Z,95757.28
2022-08-16T05:49:03.633Z,95755.28
2022-08-16T05:51:38.823Z,95755.88
2022-08-16T05:54:07.867Z,95761.13
2022-08-16T05:56:35.942Z,95757.22
2022-08-16T05:59:04.150Z,95759.13
2022-08-16T06:01:33.105Z,95763.38
2022-08-16T06:04:04.928Z,95764.75
2022-08-16T06:06:40.245Z,95767.25
2022-08-16T06:09:09.954Z,95763.16
2022-08-16T06:11:36.450Z,95767.66
2022-08-16T06:14:02.825Z,95771.31
2022-08-16T06:16:29.188Z,95768.03
2022-08-16T06:18:57.463Z,95765.13
2022-08-16T06:21:24.122Z,95768.72
2022-08-16T06:23:54.058Z,95766.59
2022-08-16T06:26:20.850Z,95774.53
2022-08-16T06:28:47.287Z,95777.44
2022-08-16T06:31:13.644Z,95778.69
2022-08-16T06:33:41.635Z,95772.28
2022-08-16T06:36:08.555Z,95774.03
2022-08-16T06:38:34.920Z,95773.72
2022-08-16T06:41:01.286Z,95777.91
2022-08-16T06:43:28.905Z,95781.69
2022-08-16T06:45:55.274Z,95786.75
2022-08-16T06:48:32.213Z,95787.78
2022-08-16T06:50:59.616Z,95782.97
2022-08-16T06:53:26.030Z,95779.31
2022-08-16T06:55:56.027Z,95783.06
2022-08-16T06:58:31.345Z,95784.00
2022-08-16T07:00:59.780Z,95792.63
2022-08-16T07:03:28.398Z,95795.34
2022-08-16T07:05:58.685Z,95793.41
2022-08-16T07:08:25.050Z,95799.41
2022-08-16T07:10:53.865Z,95795.22
2022-08-16T07:13:43.677Z,95785.50
2022-08-16T07:16:07.013Z,95793.06
2022-08-16T07:18:33.385Z,95783.41
2022-08-16T07:21:02.048Z,95793.78
2022-08-16T07:23:36.883Z,95789.81
2022-08-16T07:26:05.597Z,95792.03
2022-08-16T07:28:32.446Z,95782.44
2022-08-16T07:30:58.835Z,95787.34
2022-08-16T07:33:52.051Z,95788.25
2022-08-16T07:36:11.636Z,95790.75
2022-08-16T07:38:38.043Z,95797.50
2022-08-16T07:41:10.257Z,95794.66
2022-08-16T07:43:40.315Z,95798.44
2022-08-16T07:46:39.013Z,95796.53
2022-08-16T07:48:55.262Z,95797.81
2022-08-16T07:51:28.383Z,95788.25
2022-08-16T07:54:08.955Z,95789.81
2022-08-16T07:56:37.034Z,95789.28
2022-08-16T07:59:03.735Z,95788.78
2022-08-16T08:01:31.048Z,95785.00
2022-08-16T08:03:57.409Z,95789.44
2022-08-16T08:06:25.133Z,95786.31
2022-08-16T08:08:52.764Z,95791.97
2022-08-16T08:11:24.094Z,95791.72
2022-08-16T08:13:54.615Z,95795.84
2022-08-16T08:16:21.045Z,95798.25
2022-08-16T08:18:50.214Z,95788.53
2022-08-16T08:21:26.365Z,95796.66
2022-08-16T08:23:54.059Z,95796.00
2022-08-16T08:26:21.118Z,95808.00
2022-08-16T08:28:47.493Z,95808.75
2022-08-16T08:31:17.309Z,95805.63
2022-08-16T08:33:47.137Z,95803.41
2022-08-16T08:36:16.345Z,95797.72
2022-08-16T08:38:48.591Z,95800.25
2022-08-16T08:41:18.533Z,95797.78
2022-08-16T08:43:45.893Z,95801.63
2022-08-16T08:46:18.232Z,95807.22
2022-08-16T08:48:59.529Z,95815.00
2022-08-16T08:51:27.568Z,95813.00
2022-08-16T08:53:58.706Z,95808.34
2022-08-16T08:56:25.598Z,95814.16
2022-08-16T08:58:54.700Z,95808.63
2022-08-16T09:01:31.628Z,95810.69
2022-08-16T09:04:03.037Z,95808.34
2022-08-16T09:06:31.009Z,95805.50
2022-08-16T09:08:57.363Z,95802.75
2022-08-16T09:11:40.697Z,95807.22
2022-08-16T09:14:07.489Z,95810.88
2022-08-16T09:17:03.314Z,95818.66
2022-08-16T09:19:20.256Z,95823.13
2022-08-16T09:21:59.611Z,95823.25
2022-08-16T09:24:46.648Z,95818.00
2022-08-16T09:27:12.324Z,95822.72
2022-08-16T09:29:45.348Z,95818.34
2022-08-16T09:32:12.178Z,95825.81
2022-08-16T09:34:38.553Z,95822.97
2022-08-16T09:37:18.176Z,95820.41
2022-08-16T09:39:50.128Z,95816.97
2022-08-16T09:42:16.876Z,95812.28
2022-08-16T09:45:12.619Z,95817.72
2022-08-16T09:47:56.746Z,95810.25
2022-08-16T09:50:22.926Z,95806.25
2022-08-16T09:52:49.833Z,95807.03
2022-08-16T09:55:16.283Z,95814.72
2022-08-16T09:57:42.657Z,95809.38
2022-08-16T10:00:42.190Z,95812.50
2022-08-16T10:03:05.976Z,95808.28
2022-08-16T10:05:35.565Z,95809.38
2022-08-16T10:08:01.933Z,95804.94
2022-08-16T10:10:48.280Z,95803.34
2022-08-16T10:13:16.454Z,95814.06
2022-08-16T10:15:43.083Z,95807.63
2022-08-16T10:18:48.286Z,95806.16
2022-08-16T10:21:06.087Z,95807.63
2022-08-16T10:23:35.270Z,95802.69
2022-08-16T10:27:18.137Z,95813.88
2022-08-16T10:28:47.968Z,95811.00
2022-08-16T10:31:43.640Z,95802.03
2022-08-16T10:34:03.092Z,95801.41
2022-08-16T10:36:38.575Z,95790.69
2022-08-16T10:39:08.586Z,95789.09
2022-08-16T10:41:35.118Z,95788.31
2022-08-16T10:44:02.126Z,95790.56
2022-08-16T10:46:33.748Z,95780.59
2022-08-16T10:49:06.600Z,95786.09
2022-08-16T10:51:33.437Z,95785.34
2022-08-16T10:54:00.948Z,95783.09
2022-08-16T10:56:52.071Z,95789.09
2022-08-16T10:59:32.679Z,95785.34
2022-08-16T11:07:52.382Z,95786.88
2022-08-16T11:10:20.981Z,95778.19
2022-08-16T11:15:55.788Z,95782.44
2022-08-16T11:19:04.742Z,95784.69
2022-08-16T11:21:10.347Z,95778.19
2022-08-16T11:23:58.130Z,95780.22
2022-08-16T11:26:25.887Z,95781.75
2022-08-16T11:31:38.623Z,95784.44
2022-08-16T11:34:05.018Z,95764.81
2022-08-16T11:36:34.414Z,95773.28
2022-08-16T11:39:01.567Z,95772.97
2022-08-16T11:41:29.502Z,95772.63
2022-08-16T11:43:58.600Z,95771.03
2022-08-16T11:46:42.820Z,95775.31
2022-08-16T11:49:13.670Z,95776.88
2022-08-16T11:51:40.531Z,95768.81
2022-08-16T11:54:09.070Z,95767.69
2022-08-16T11:56:56.544Z,95764.59
2022-08-16T11:59:24.418Z,95763.47
2022-08-16T12:01:59.940Z,95765.03
2022-08-16T12:04:26.778Z,95757.44
2022-08-16T12:06:53.795Z,95761.59
2022-08-16T12:09:21.250Z,95754.97
2022-08-16T12:11:52.485Z,95754.22
2022-08-16T12:14:19.182Z,95760.59
2022-08-16T12:16:55.212Z,95761.25
2022-08-16T12:19:22.219Z,95753.66
2022-08-16T12:21:59.891Z,95758.13
2022-08-16T12:24:26.248Z,95749.88
2022-08-16T12:26:52.596Z,95754.09
2022-08-16T12:29:20.214Z,95750.31
2022-08-16T12:32:01.465Z,95748.28
2022-08-16T12:34:32.964Z,95745.19
2022-08-16T12:37:01.021Z,95745.59
2022-08-16T12:39:29.037Z,95742.94
2022-08-16T12:41:55.576Z,95736.69
2022-08-16T12:44:21.941Z,95736.25
2022-08-16T12:46:48.586Z,95738.50
2022-08-16T12:49:17.544Z,95730.00
2022-08-16T12:51:58.452Z,95726.84
2022-08-16T12:54:26.381Z,95730.66
2022-08-16T12:56:52.767Z,95728.88
2022-08-16T12:59:21.336Z,95726.19
2022-08-16T13:01:50.432Z,95711.69
2022-08-16T13:04:21.093Z,95718.63
2022-08-16T13:06:52.236Z,95711.69
2022-08-16T13:09:19.288Z,95716.81
2022-08-16T13:11:52.154Z,95708.78
2022-08-16T13:14:31.011Z,95709.44
2022-08-16T13:16:59.679Z,95703.00
2022-08-16T13:19:31.965Z,95695.06
2022-08-16T13:22:05.866Z,95703.41
2022-08-16T13:24:32.267Z,95694.28
2022-08-16T13:27:01.853Z,95695.84
2022-08-16T13:29:40.075Z,95693.97
2022-08-16T13:32:10.332Z,95693.63
2022-08-16T13:34:56.674Z,95694.38
2022-08-16T13:37:23.186Z,95690.59
2022-08-16T13:39:49.582Z,95687.59
2022-08-16T13:42:16.500Z,95689.19
2022-08-16T13:44:56.440Z,95686.16
2022-08-16T13:47:24.440Z,95684.69
2022-08-16T13:49:56.359Z,95678.91
2022-08-16T13:52:22.736Z,95673.97
2022-08-16T13:54:51.413Z,95675.56
2022-08-16T13:57:17.774Z,95675.56
2022-08-16T13:59:44.154Z,95679.47
2022-08-16T14:02:11.821Z,95675.66
2022-08-16T14:04:38.218Z,95667.94
2022-08-16T14:07:06.266Z,95662.59
2022-08-16T14:09:32.625Z,95665.72
2022-08-16T14:12:00.450Z,95653.44
2022-08-16T14:14:29.202Z,95656.13
2022-08-16T14:16:55.952Z,95649.97
2022-08-16T14:19:22.861Z,95645.75
2022-08-16T14:21:56.690Z,95638.03
2022-08-16T14:24:31.206Z,95632.00
2022-08-16T14:26:57.561Z,95630.44
2022-08-16T14:29:23.928Z,95632.00
2022-08-16T14:31:53.878Z,95630.00
2022-08-16T14:34:20.773Z,95623.16
2022-08-16T14:36:47.134Z,95627.72
2022-08-16T14:39:18.512Z,95626.41
2022-08-16T14:41:44.864Z,95619.50
2022-08-16T14:44:11.234Z,95614.47
2022-08-16T14:46:37.606Z,95618.38
2022-08-16T14:49:05.108Z,95622.16
2022-08-16T14:51:35.624Z,95623.94
2022-08-16T14:54:02.105Z,95619.94
2022-08-16T14:56:38.646Z,95626.06
2022-08-16T14:59:09.555Z,95619.94
2022-08-16T15:01:58.842Z,95617.25
2022-08-16T15:04:32.236Z,95611.66
2022-08-16T15:07:06.325Z,95607.66
2022-08-16T15:09:44.150Z,95609.22
2022-08-16T15:12:26.653Z,95608.97
2022-08-16T15:14:57.193Z,95610.78
2022-08-16T15:17:25.721Z,95612.31
2022-08-16T15:19:53.141Z,95609.66
2022-08-16T15:22:19.496Z,95607.66
2022-08-16T15:24:45.941Z,95606.09
2022-08-16T15:27:12.288Z,95601.41
2022-08-16T15:29:39.905Z,95598.28
2022-08-16T15:32:08.443Z,95599.84
2022-08-16T15:34:36.311Z,95594.50
2022-08-16T15:37:02.672Z,95598.28
2022-08-16T15:39:35.806Z,95582.66
2022-08-16T15:42:06.085Z,95580.31
2022-08-16T15:44:51.869Z,95579.19
2022-08-16T15:47:19.530Z,95580.66
2022-08-16T15:49:46.748Z,95578.41
2022-08-16T15:52:20.726Z,95577.97
2022-08-16T15:54:53.496Z,95572.94
2022-08-16T15:57:21.546Z,95573.72
2022-08-16T15:59:52.238Z,95576.41
2022-08-16T16:02:29.348Z,95564.13
2022-08-16T16:04:57.877Z,95579.78
2022-08-16T16:07:27.465Z,95565.25
2022-08-16T16:09:59.360Z,95571.41
2022-08-16T16:15:12.196Z,95567.59
2022-08-16T16:17:38.604Z,95561.44
2022-08-16T16:20:05.600Z,95558.00
2022-08-16T16:22:40.856Z,95554.53
2022-08-16T16:25:07.213Z,95551.84
2022-08-16T16:27:33.839Z,95559.88
2022-08-16T16:30:01.890Z,95554.06
2022-08-16T16:32:33.216Z,95552.97
2022-08-16T16:35:01.248Z,95556.75
2022-08-16T16:37:27.611Z,95545.34
2022-08-16T16:39:54.277Z,95550.72
2022-08-16T16:42:29.272Z,95531.19
2022-08-16T16:45:00.925Z,95542.25
2022-08-16T16:47:28.138Z,95542.34
2022-08-16T16:49:54.952Z,95541.59
2022-08-16T16:52:43.676Z,95542.34
2022-08-16T16:55:07.649Z,95530.88
2022-08-16T16:57:35.323Z,95528.19
2022-08-16T17:00:04.661Z,95529.28
2022-08-16T17:02:49.550Z,95521.69
2022-08-16T17:05:20.015Z,95529.28
2022-08-16T17:07:47.110Z,95521.69
2022-08-16T17:10:13.836Z,95521.69
2022-08-16T17:13:05.458Z,95523.25
2022-08-16T17:15:36.278Z,95520.16
2022-08-16T17:18:04.448Z,95510.19
2022-08-16T17:20:49.524Z,95511.66
2022-08-16T17:23:15.897Z,95515.88
2022-08-16T17:25:45.979Z,95523.94
2022-08-16T17:28:57.981Z,95515.47
2022-08-16T17:31:05.113Z,95518.16
2022-08-16T17:33:37.189Z,95513.13
2022-08-16T17:36:35.909Z,95515.00
2022-08-16T17:39:03.121Z,95520.03
2022-08-16T17:41:29.501Z,95516.88
2022-08-16T17:43:55.902Z,95515.31
2022-08-16T17:46:51.243Z,95524.16
2022-08-16T17:49:08.619Z,95526.84
2022-08-16T17:51:34.979Z,95523.94
2022-08-16T17:54:01.343Z,95537.31
2022-08-16T17:56:27.700Z,95539.56
2022-08-16T17:58:54.053Z,95538.91
2022-08-16T18:01:20.497Z,95540.22
2022-08-16T18:04:07.557Z,95536.91
2022-08-16T18:06:33.217Z,95543.34
2022-08-16T18:09:03.619Z,95539.78
2022-08-16T18:11:32.945Z,95535.31
2022-08-16T18:13:59.384Z,95535.31
2022-08-16T18:16:25.761Z,95540.69
2022-08-16T18:18:52.137Z,95537.25
2022-08-16T18:21:18.492Z,95539.91
2022-08-16T18:23:44.845Z,95542.25
2022-08-16T18:26:11.206Z,95542.91
2022-08-16T18:28:37.561Z,95547.63
2022-08-16T18:31:05.670Z,95543.34
2022-08-16T18:33:32.108Z,95539.13
2022-08-16T18:35:58.479Z,95544.50
2022-08-16T18:38:24.838Z,95544.50
2022-08-16T18:40:51.211Z,95555.22
2022-08-16T18:43:17.571Z,95549.16
2022-08-16T18:45:43.935Z,95547.97
2022-08-16T18:48:10.337Z,95556.06
2022-08-16T18:50:59.071Z,95558.34
2022-08-16T18:53:23.058Z,95553.84
2022-08-16T18:55:49.420Z,95559.22
2022-08-16T18:58:15.772Z,95562.13
2022-08-16T19:00:52.720Z,95559.88
2022-08-16T19:03:23.483Z,95565.25
2022-08-16T19:05:49.858Z,95570.59
2022-08-16T19:08:16.219Z,95577.97
2022-08-16T19:10:42.573Z,95581.31
2022-08-16T19:13:08.946Z,95586.69
2022-08-16T19:15:35.312Z,95580.66
2022-08-16T19:18:01.669Z,95577.50
2022-08-16T19:20:28.028Z,95585.13
2022-08-16T19:23:09.922Z,95586.22
2022-08-16T19:25:47.610Z,95592.72
2022-08-16T19:28:46.695Z,95593.59
2022-08-16T19:31:02.037Z,95587.13
2022-08-16T19:33:28.408Z,95590.16
2022-08-16T19:35:54.782Z,95597.41
2022-08-16T19:38:21.140Z,95597.19
2022-08-16T19:40:47.565Z,95594.50
2022-08-16T19:43:13.956Z,95597.94
2022-08-16T19:45:45.352Z,95594.69
2022-08-16T19:48:12.423Z,95592.91
2022-08-16T19:50:38.784Z,95598.72
2022-08-16T19:53:12.982Z,95601.53
2022-08-16T19:55:45.738Z,95610.56
2022-08-16T19:58:13.867Z,95607.44
2022-08-16T20:00:40.227Z,95604.53
2022-08-16T20:03:09.120Z,95603.75
2022-08-16T20:05:35.505Z,95601.19
2022-08-16T20:08:04.459Z,95597.38
2022-08-16T20:10:31.165Z,95592.00
2022-08-16T20:13:01.900Z,95596.50
2022-08-16T20:15:29.160Z,95592.34
2022-08-16T20:17:55.526Z,95591.56
2022-08-16T20:20:21.885Z,95591.34
2022-08-16T20:22:54.275Z,95601.59
2022-08-16T20:25:21.048Z,95605.41
2022-08-16T20:27:54.892Z,95610.09
2022-08-16T20:30:21.263Z,95612.78
2022-08-16T20:32:47.784Z,95616.81
2022-08-16T20:35:14.229Z,95615.91
2022-08-16T20:37:40.589Z,95615.69
2022-08-16T20:40:28.686Z,95621.72
2022-08-16T20:42:57.482Z,95628.63
2022-08-16T20:45:24.448Z,95620.13
2022-08-16T20:47:53.452Z,95625.63
2022-08-16T20:50:20.220Z,95641.59
2022-08-16T20:52:46.576Z,95647.84
2022-08-16T20:55:12.941Z,95668.84
2022-08-16T20:57:39.318Z,95668.06
2022-08-16T21:00:05.682Z,95659.38
2022-08-16T21:02:32.050Z,95667.19
2022-08-16T21:04:58.414Z,95686.50
2022-08-16T21:07:25.954Z,95713.97
2022-08-16T21:09:52.316Z,95730.16
2022-08-16T21:12:18.673Z,95720.09
2022-08-16T21:14:45.169Z,95697.00
2022-08-16T21:17:11.551Z,95710.41
2022-08-16T21:19:37.929Z,95720.84
2022-08-16T21:22:04.301Z,95723.44
2022-08-16T21:24:30.677Z,95712.72
2022-08-16T21:26:57.027Z,95706.56
2022-08-16T21:29:24.899Z,95712.72
2022-08-16T21:31:51.582Z,95714.38
2022-08-16T21:34:17.950Z,95713.47
2022-08-16T21:36:44.312Z,95718.78
2022-08-16T21:39:10.685Z,95719.75
2022-08-16T21:41:37.057Z,95721.19
2022-08-16T21:44:03.444Z,95729.81
2022-08-16T21:46:29.819Z,95723.53
2022-08-16T21:48:56.172Z,95721.00
2022-08-16T21:51:22.529Z,95727.53
2022-08-16T21:53:48.886Z,95735.56
2022-08-16T21:56:16.631Z,95733.47
2022-08-16T21:58:43.389Z,95739.16
2022-08-16T22:01:09.751Z,95740.38
2022-08-16T22:03:36.109Z,95747.09
2022-08-16T22:06:13.023Z,95754.78
2022-08-16T22:08:46.728Z,95764.19
2022-08-16T22:11:17.031Z,95767.06
2022-08-16T22:13:43.391Z,95782.69
2022-08-16T22:16:17.732Z,95805.22
2022-08-16T22:18:44.104Z,95817.19
2022-08-16T22:21:18.907Z,95823.72
2022-08-16T22:23:45.284Z,95829.47
2022-08-16T22:26:29.766Z,95819.16
2022-08-16T22:28:57.512Z,95824.63
2022-08-16T22:31:23.884Z,95811.56
2022-08-16T22:33:50.486Z,95806.09
2022-08-16T22:36:16.853Z,95790.44
2022-08-16T22:38:54.139Z,95787.13
2022-08-16T22:41:23.185Z,95794.81
2022-08-16T22:43:49.553Z,95791.25
2022-08-16T22:46:15.930Z,95776.72
2022-08-16T22:48:42.701Z,95796.41
2022-08-16T22:51:09.237Z,95786.25
2022-08-16T22:53:35.610Z,95787.38
2022-08-16T22:56:03.883Z,95804.22
2022-08-16T22:58:36.513Z,95804.13
2022-08-16T23:01:03.722Z,95806.56
2022-08-16T23:03:30.400Z,95797.41
2022-08-16T23:05:56.765Z,95804.31
2022-08-16T23:08:33.681Z,95799.19
2022-08-16T23:11:06.118Z,95796.94
2022-08-16T23:13:32.481Z,95816.81
2022-08-16T23:15:58.851Z,95810.56
2022-08-16T23:18:27.718Z,95807.56
2022-08-16T23:20:54.088Z,95808.44
2022-08-16T23:23:22.008Z,95802.97
2022-08-16T23:25:48.604Z,95798.50
2022-08-16T23:28:14.964Z,95801.31
2022-08-16T23:30:41.332Z,95796.28
2022-08-16T23:33:07.704Z,95792.72
2022-08-16T23:35:45.010Z,95791.31
2022-08-16T23:38:37.910Z,95795.13
2022-08-16T23:40:58.601Z,95802.63
2022-08-16T23:43:24.960Z,95800.75
2022-08-16T23:45:51.328Z,95811.47
2022-08-16T23:48:17.702Z,95825.69
2022-08-16T23:50:44.065Z,95822.31
2022-08-16T23:53:10.442Z,95819.41
2022-08-16T23:55:36.814Z,95820.78
2022-08-16T23:58:03.173Z,95829.03
